createdAt,value
2019-01-28T00:01:37.833Z,70.20
2019-01-28T00:04:07.153Z,70.42
2019-01-28T00:06:36.786Z,70.05
2019-01-28T00:09:07.573Z,70.05
2019-01-28T00:11:37.134Z,70.56
2019-01-28T00:14:06.798Z,70.35
2019-01-28T00:16:36.392Z,70.40
2019-01-28T00:19:07.401Z,70.36
2019-01-28T00:21:36.939Z,70.26
2019-01-28T00:24:06.525Z,70.70
2019-01-28T00:26:35.845Z,70.17
2019-01-28T00:29:05.475Z,70.44
2019-01-28T00:31:34.813Z,70.71
2019-01-28T00:34:04.178Z,70.56
2019-01-28T00:36:33.784Z,70.54
2019-01-28T00:39:05.003Z,70.67
2019-01-28T00:41:34.600Z,70.73
2019-01-28T00:44:04.661Z,70.64
2019-01-28T00:46:34.834Z,70.64
2019-01-28T00:49:04.223Z,70.57
2019-01-28T00:51:33.833Z,70.33
2019-01-28T00:54:03.135Z,70.42
2019-01-28T00:56:32.468Z,70.55
2019-01-28T00:59:02.199Z,70.63
2019-01-28T01:01:31.529Z,70.84
2019-01-28T01:04:00.854Z,71.12
2019-01-28T01:06:30.453Z,71.17
2019-01-28T01:09:01.702Z,71.13
2019-01-28T01:11:31.370Z,71.33
2019-01-28T01:14:00.673Z,71.60
2019-01-28T01:16:30.355Z,71.35
2019-01-28T01:19:00.942Z,71.70
2019-01-28T01:21:30.290Z,71.64
2019-01-28T01:23:59.876Z,71.76
2019-01-28T01:26:29.805Z,71.54
2019-01-28T01:28:59.138Z,71.80
2019-01-28T01:31:28.507Z,71.48
2019-01-28T01:33:57.848Z,71.76
2019-01-28T01:36:27.579Z,71.72
2019-01-28T01:38:56.920Z,71.67
2019-01-28T01:41:26.240Z,71.47
2019-01-28T01:43:56.038Z,71.71
2019-01-28T01:46:25.636Z,71.66
2019-01-28T01:48:54.967Z,71.46
2019-01-28T01:51:24.330Z,71.56
2019-01-28T01:53:53.662Z,71.32
2019-01-28T01:56:23.352Z,71.36
2019-01-28T01:58:52.693Z,71.70
2019-01-28T02:01:22.019Z,71.97
2019-01-28T02:03:51.684Z,71.47
2019-01-28T02:06:21.037Z,71.43
2019-01-28T02:08:50.344Z,72.09
2019-01-28T02:11:19.649Z,71.97
2019-01-28T02:13:49.117Z,71.63
2019-01-28T02:16:18.420Z,71.53
2019-01-28T02:18:47.754Z,72.07
2019-01-28T02:21:17.735Z,72.49
2019-01-28T02:23:47.063Z,72.97
2019-01-28T02:26:16.772Z,73.62
2019-01-28T02:28:46.381Z,73.26
2019-01-28T02:31:15.687Z,72.95
2019-01-28T02:33:45.310Z,73.06
2019-01-28T02:36:14.632Z,73.70
2019-01-28T02:38:44.396Z,74.78
2019-01-28T02:41:13.717Z,75.03
2019-01-28T02:43:43.035Z,75.36
2019-01-28T02:46:12.357Z,75.84
2019-01-28T02:48:41.772Z,75.95
2019-01-28T02:51:11.172Z,75.89
2019-01-28T02:53:40.541Z,75.49
2019-01-28T02:56:09.868Z,74.93
2019-01-28T02:58:39.509Z,75.05
2019-01-28T03:01:08.839Z,75.39
2019-01-28T03:03:38.523Z,76.04
2019-01-28T03:06:08.234Z,76.90
2019-01-28T03:08:37.548Z,77.64
2019-01-28T03:11:06.862Z,77.99
2019-01-28T03:13:36.540Z,77.79
2019-01-28T03:16:05.861Z,79.00
2019-01-28T03:18:35.199Z,79.02
2019-01-28T03:21:04.841Z,79.71
2019-01-28T03:23:34.336Z,79.46
2019-01-28T03:26:03.646Z,79.87
2019-01-28T03:28:32.967Z,79.36
2019-01-28T03:31:02.343Z,79.86
2019-01-28T03:33:31.630Z,80.15
2019-01-28T03:36:01.251Z,79.27
2019-01-28T03:38:30.581Z,79.34
2019-01-28T03:41:00.265Z,79.02
2019-01-28T03:43:29.769Z,79.26
2019-01-28T03:45:59.371Z,79.76
2019-01-28T03:48:29.009Z,79.66
2019-01-28T03:50:58.724Z,79.20
2019-01-28T03:53:28.305Z,79.02
2019-01-28T03:55:57.864Z,79.39
2019-01-28T03:58:27.225Z,79.68
2019-01-28T04:00:56.583Z,79.49
2019-01-28T04:03:26.206Z,78.79
2019-01-28T04:05:55.820Z,78.94
2019-01-28T04:08:25.135Z,79.10
2019-01-28T04:10:54.569Z,78.33
2019-01-28T04:13:23.882Z,78.69
2019-01-28T04:15:53.513Z,78.08
2019-01-28T04:18:22.941Z,77.68
2019-01-28T04:20:52.326Z,77.18
2019-01-28T04:23:21.643Z,77.08
2019-01-28T04:25:51.369Z,77.61
2019-01-28T04:28:20.717Z,77.35
2019-01-28T04:30:50.041Z,76.87
2019-01-28T04:33:19.746Z,76.94
2019-01-28T04:35:49.077Z,76.49
2019-01-28T04:38:18.373Z,76.62
2019-01-28T04:40:47.700Z,76.46
2019-01-28T04:43:17.014Z,75.79
2019-01-28T04:45:46.331Z,75.74
2019-01-28T04:48:15.986Z,75.16
2019-01-28T04:50:45.560Z,75.89
2019-01-28T04:53:15.196Z,75.79
2019-01-28T04:55:44.875Z,75.42
2019-01-28T04:58:14.188Z,74.93
2019-01-28T05:00:43.575Z,75.58
2019-01-28T05:03:13.420Z,75.14
2019-01-28T05:05:43.124Z,75.06
2019-01-28T05:08:12.555Z,74.94
2019-01-28T05:10:42.206Z,74.66
2019-01-28T05:13:11.600Z,75.41
2019-01-28T05:15:43.793Z,75.12
2019-01-28T05:18:13.233Z,74.84
2019-01-28T05:20:42.651Z,74.92
2019-01-28T05:23:12.523Z,74.81
2019-01-28T05:25:42.144Z,74.35
2019-01-28T05:28:11.548Z,74.85
2019-01-28T05:30:40.980Z,74.59
2019-01-28T05:33:10.440Z,74.81
2019-01-28T05:35:40.165Z,74.75
2019-01-28T05:38:11.558Z,79.20
2019-01-28T05:40:41.012Z,79.29
2019-01-28T05:43:10.667Z,74.99
2019-01-28T05:45:40.061Z,73.94
2019-01-28T05:48:09.778Z,74.65
2019-01-28T05:50:39.403Z,75.19
2019-01-28T05:53:08.792Z,74.99
2019-01-28T05:55:40.518Z,75.21
2019-01-28T05:58:10.734Z,75.43
2019-01-28T06:00:42.002Z,75.43
2019-01-28T06:03:11.423Z,75.33
2019-01-28T06:05:41.054Z,74.89
2019-01-28T06:08:10.618Z,74.59
2019-01-28T06:10:39.985Z,74.33
2019-01-28T06:13:09.311Z,73.94
2019-01-28T06:15:38.915Z,73.21
2019-01-28T06:18:08.215Z,73.36
2019-01-28T06:20:37.606Z,73.62
2019-01-28T06:23:06.911Z,73.61
2019-01-28T06:25:36.318Z,72.92
2019-01-28T06:28:06.035Z,73.26
2019-01-28T06:30:35.335Z,72.61
2019-01-28T06:33:04.750Z,73.00
2019-01-28T06:35:34.068Z,72.43
2019-01-28T06:38:06.466Z,71.64
2019-01-28T06:40:36.539Z,72.13
2019-01-28T06:43:06.383Z,72.32
2019-01-28T06:45:35.750Z,71.93
2019-01-28T06:48:05.480Z,71.29
2019-01-28T06:50:34.873Z,71.69
2019-01-28T06:53:04.160Z,72.05
2019-01-28T06:55:34.034Z,71.56
2019-01-28T06:58:03.727Z,71.39
2019-01-28T07:00:37.021Z,71.91
2019-01-28T07:03:06.719Z,71.60
2019-01-28T07:05:36.395Z,71.09
2019-01-28T07:08:05.940Z,71.60
2019-01-28T07:10:35.331Z,71.70
2019-01-28T07:13:04.734Z,71.72
2019-01-28T07:15:34.100Z,70.63
2019-01-28T07:18:03.411Z,70.64
2019-01-28T07:20:32.767Z,70.47
2019-01-28T07:23:02.521Z,69.68
2019-01-28T07:25:31.969Z,69.58
2019-01-28T07:28:01.554Z,69.56
2019-01-28T07:30:34.334Z,69.95
2019-01-28T07:33:03.722Z,69.18
2019-01-28T07:35:33.275Z,68.29
2019-01-28T07:38:02.583Z,67.91
2019-01-28T07:40:31.927Z,67.83
2019-01-28T07:43:01.535Z,68.38
2019-01-28T07:45:33.701Z,68.11
2019-01-28T07:48:03.404Z,68.43
2019-01-28T07:50:32.808Z,68.19
2019-01-28T07:53:02.498Z,65.72
2019-01-28T07:55:32.170Z,65.96
2019-01-28T07:58:01.494Z,65.53
2019-01-28T08:00:31.978Z,64.67
2019-01-28T08:03:03.601Z,63.23
2019-01-28T08:05:32.705Z,62.84
2019-01-28T08:08:02.509Z,63.11
2019-01-28T08:10:31.908Z,63.12
2019-01-28T08:13:01.300Z,63.10
2019-01-28T08:15:30.660Z,63.05
2019-01-28T08:17:59.988Z,62.78
2019-01-28T08:20:29.379Z,62.37
2019-01-28T08:22:58.791Z,62.41
2019-01-28T08:25:28.094Z,62.41
2019-01-28T08:27:57.398Z,62.58
2019-01-28T08:30:33.949Z,62.41
2019-01-28T08:33:03.658Z,62.46
2019-01-28T08:35:34.334Z,62.38
2019-01-28T08:38:04.193Z,62.40
2019-01-28T08:40:33.616Z,61.93
2019-01-28T08:43:03.312Z,62.07
2019-01-28T08:45:32.845Z,62.09
2019-01-28T08:48:02.432Z,61.66
2019-01-28T08:50:32.174Z,61.25
2019-01-28T08:53:01.474Z,61.37
2019-01-28T08:55:30.879Z,60.95
2019-01-28T08:58:00.298Z,61.14
2019-01-28T09:00:34.419Z,60.95
2019-01-28T09:03:03.838Z,61.18
2019-01-28T09:05:33.170Z,60.98
2019-01-28T09:08:02.471Z,60.06
2019-01-28T09:10:32.514Z,59.53
2019-01-28T09:13:02.291Z,59.86
2019-01-28T09:15:31.837Z,59.96
2019-01-28T09:18:01.179Z,60.26
2019-01-28T09:20:33.248Z,60.12
2019-01-28T09:23:02.592Z,60.02
2019-01-28T09:25:33.048Z,59.80
2019-01-28T09:28:03.196Z,59.31
2019-01-28T09:30:36.321Z,59.03
2019-01-28T09:33:06.467Z,59.31
2019-01-28T09:35:35.814Z,59.15
2019-01-28T09:38:05.419Z,58.06
2019-01-28T09:40:37.815Z,57.86
2019-01-28T09:43:08.207Z,57.29
2019-01-28T09:45:41.348Z,57.40
2019-01-28T09:48:13.469Z,56.95
2019-01-28T09:50:43.105Z,56.83
2019-01-28T09:53:12.551Z,56.97
2019-01-28T09:55:41.889Z,56.67
2019-01-28T09:58:11.187Z,56.97
2019-01-28T10:00:44.510Z,57.13
2019-01-28T10:03:13.841Z,56.20
2019-01-28T10:05:43.454Z,56.44
2019-01-28T10:08:13.079Z,56.10
2019-01-28T10:10:42.389Z,55.28
2019-01-28T10:13:11.721Z,53.73
2019-01-28T10:15:41.067Z,53.76
2019-01-28T10:18:10.461Z,53.35
2019-01-28T10:20:44.763Z,53.91
2019-01-28T10:23:14.602Z,53.48
2019-01-28T10:25:43.929Z,53.26
2019-01-28T10:28:13.248Z,53.25
2019-01-28T10:30:44.692Z,52.40
2019-01-28T10:33:14.030Z,52.44
2019-01-28T10:35:43.719Z,51.29
2019-01-28T10:38:13.045Z,51.52
2019-01-28T10:40:44.099Z,50.77
2019-01-28T10:43:13.425Z,50.24
2019-01-28T10:45:43.098Z,50.08
2019-01-28T10:48:12.428Z,50.07
2019-01-28T10:50:42.167Z,50.12
2019-01-28T10:53:11.461Z,50.42
2019-01-28T10:55:41.045Z,48.23
2019-01-28T10:58:10.632Z,49.34
2019-01-28T11:00:46.264Z,50.44
2019-01-28T11:03:17.544Z,50.48
2019-01-28T11:05:46.834Z,49.98
2019-01-28T11:08:16.142Z,49.30
2019-01-28T11:10:45.812Z,49.85
2019-01-28T11:13:15.478Z,50.44
2019-01-28T11:15:44.840Z,50.81
2019-01-28T11:18:19.044Z,50.80
2019-01-28T11:20:48.457Z,51.77
2019-01-28T11:23:17.841Z,51.66
2019-01-28T11:25:47.253Z,51.40
2019-01-28T11:28:16.678Z,51.63
2019-01-28T11:30:54.720Z,51.36
2019-01-28T11:33:24.432Z,51.32
2019-01-28T11:35:53.772Z,51.53
2019-01-28T11:38:23.156Z,51.21
2019-01-28T11:40:52.485Z,50.47
2019-01-28T11:43:21.832Z,50.41
2019-01-28T11:46:00.723Z,50.23
2019-01-28T11:48:30.386Z,48.26
2019-01-28T11:50:59.959Z,45.28
2019-01-28T11:53:29.276Z,44.60
2019-01-28T11:55:58.854Z,44.39
2019-01-28T11:58:28.430Z,44.08
2019-01-28T12:01:02.274Z,44.82
2019-01-28T12:03:31.886Z,46.59
2019-01-28T12:06:01.479Z,47.07
2019-01-28T12:08:30.837Z,48.06
2019-01-28T12:11:00.155Z,48.29
2019-01-28T12:13:29.469Z,48.29
2019-01-28T12:15:58.786Z,46.16
2019-01-28T12:18:28.406Z,44.08
2019-01-28T12:20:58.215Z,43.63
2019-01-28T12:23:27.897Z,43.44
2019-01-28T12:25:57.491Z,44.74
2019-01-28T12:28:27.104Z,45.57
2019-01-28T12:30:56.905Z,46.96
2019-01-28T12:33:26.360Z,46.77
2019-01-28T12:35:55.682Z,48.07
2019-01-28T12:38:25.033Z,48.21
2019-01-28T12:40:54.349Z,47.83
2019-01-28T12:43:23.667Z,47.81
2019-01-28T12:45:53.048Z,48.33
2019-01-28T12:48:23.182Z,48.77
2019-01-28T12:50:53.051Z,48.55
2019-01-28T12:53:22.680Z,48.27
2019-01-28T12:55:52.258Z,47.89
2019-01-28T12:58:21.996Z,47.96
2019-01-28T13:00:55.933Z,48.04
2019-01-28T13:03:25.254Z,48.66
2019-01-28T13:05:54.884Z,49.16
2019-01-28T13:08:24.192Z,48.50
2019-01-28T13:10:53.529Z,48.73
2019-01-28T13:13:22.901Z,48.61
2019-01-28T13:15:52.218Z,48.74
2019-01-28T13:18:21.822Z,48.02
2019-01-28T13:20:51.169Z,47.42
2019-01-28T13:23:21.562Z,47.43
2019-01-28T13:25:51.235Z,47.56
2019-01-28T13:28:21.067Z,48.49
2019-01-28T13:30:50.403Z,48.29
2019-01-28T13:33:19.786Z,48.14
2019-01-28T13:35:49.353Z,47.76
2019-01-28T13:38:22.632Z,47.43
2019-01-28T13:40:52.405Z,47.33
2019-01-28T13:43:21.741Z,47.83
2019-01-28T13:45:53.524Z,47.99
2019-01-28T13:48:22.926Z,48.12
2019-01-28T13:50:57.176Z,48.71
2019-01-28T13:53:29.589Z,48.56
2019-01-28T13:56:01.976Z,48.76
2019-01-28T13:58:31.636Z,49.13
2019-01-28T14:01:01.392Z,49.06
2019-01-28T14:03:35.347Z,49.38
2019-01-28T14:06:07.187Z,49.48
2019-01-28T14:08:40.519Z,49.74
2019-01-28T14:11:09.818Z,49.92
2019-01-28T14:13:41.443Z,49.97
2019-01-28T14:16:13.281Z,49.17
2019-01-28T14:18:42.661Z,49.63
2019-01-28T14:21:12.462Z,49.78
2019-01-28T14:23:42.108Z,49.53
2019-01-28T14:26:16.098Z,50.27
2019-01-28T14:28:45.750Z,50.04
2019-01-28T14:31:20.382Z,50.17
2019-01-28T14:33:49.968Z,50.32
2019-01-28T14:36:19.883Z,50.95
2019-01-28T14:38:49.282Z,50.73
2019-01-28T14:41:18.644Z,51.24
2019-01-28T14:43:47.963Z,51.30
2019-01-28T14:46:17.365Z,51.46
2019-01-28T14:48:49.301Z,51.75
2019-01-28T14:51:22.457Z,51.83
2019-01-28T14:53:52.008Z,52.00
2019-01-28T14:56:21.346Z,52.39
2019-01-28T14:58:50.651Z,52.70
2019-01-28T15:01:19.961Z,53.11
2019-01-28T15:03:52.740Z,53.47
2019-01-28T15:06:24.806Z,53.22
2019-01-28T15:08:54.351Z,53.27
2019-01-28T15:11:23.947Z,53.64
2019-01-28T15:13:54.409Z,53.97
2019-01-28T15:16:23.798Z,53.99
2019-01-28T15:18:53.117Z,53.86
2019-01-28T15:21:22.425Z,54.16
2019-01-28T15:23:51.749Z,54.39
2019-01-28T15:26:21.054Z,54.58
2019-01-28T15:28:50.447Z,54.33
2019-01-28T15:31:19.776Z,54.87
2019-01-28T15:33:49.457Z,54.97
2019-01-28T15:36:18.806Z,55.31
2019-01-28T15:38:48.576Z,55.65
2019-01-28T15:41:18.927Z,55.74
2019-01-28T15:43:48.256Z,55.69
2019-01-28T15:46:17.613Z,56.06
2019-01-28T15:48:50.267Z,56.24
2019-01-28T15:51:19.576Z,56.16
2019-01-28T15:53:49.026Z,56.54
2019-01-28T15:56:18.600Z,56.54
2019-01-28T15:58:47.957Z,56.68
2019-01-28T16:01:17.332Z,57.06
2019-01-28T16:03:46.651Z,57.66
2019-01-28T16:06:16.224Z,57.30
2019-01-28T16:08:45.608Z,57.43
2019-01-28T16:11:15.405Z,57.24
2019-01-28T16:13:45.028Z,57.30
2019-01-28T16:16:14.612Z,57.68
2019-01-28T16:18:44.322Z,57.47
2019-01-28T16:21:13.640Z,57.30
2019-01-28T16:23:42.973Z,57.55
2019-01-28T16:26:12.702Z,57.46
2019-01-28T16:28:42.265Z,57.75
2019-01-28T16:31:11.834Z,57.75
2019-01-28T16:33:41.408Z,57.65
2019-01-28T16:36:10.705Z,57.75
2019-01-28T16:38:40.030Z,57.43
2019-01-28T16:41:09.621Z,57.30
2019-01-28T16:43:38.933Z,57.78
2019-01-28T16:46:08.486Z,57.79
2019-01-28T16:48:37.813Z,57.74
2019-01-28T16:51:07.094Z,57.71
2019-01-28T16:53:36.421Z,57.73
2019-01-28T16:56:06.298Z,57.89
2019-01-28T16:58:36.320Z,57.94
2019-01-28T17:01:05.950Z,57.78
2019-01-28T17:03:35.558Z,58.14
2019-01-28T17:06:05.147Z,57.87
2019-01-28T17:08:34.713Z,58.08
2019-01-28T17:11:04.357Z,57.77
2019-01-28T17:13:33.709Z,57.48
2019-01-28T17:16:03.060Z,57.99
2019-01-28T17:18:32.389Z,58.13
2019-01-28T17:21:01.955Z,57.90
2019-01-28T17:23:31.561Z,58.01
2019-01-28T17:26:01.189Z,57.82
2019-01-28T17:28:30.734Z,58.00
2019-01-28T17:31:00.142Z,58.13
2019-01-28T17:33:29.528Z,58.38
2019-01-28T17:35:59.180Z,58.27
2019-01-28T17:38:28.740Z,58.09
2019-01-28T17:40:58.541Z,58.32
2019-01-28T17:43:28.090Z,58.61
2019-01-28T17:45:57.662Z,59.26
2019-01-28T17:48:27.243Z,59.07
2019-01-28T17:50:56.539Z,58.88
2019-01-28T17:53:26.148Z,58.79
2019-01-28T17:55:55.712Z,59.01
2019-01-28T17:58:25.282Z,58.88
2019-01-28T18:00:56.459Z,58.94
2019-01-28T18:03:25.798Z,59.01
2019-01-28T18:05:55.348Z,59.08
2019-01-28T18:08:24.958Z,59.14
2019-01-28T18:10:54.524Z,59.16
2019-01-28T18:13:23.863Z,59.19
2019-01-28T18:15:53.515Z,59.20
2019-01-28T18:18:22.883Z,59.29
2019-01-28T18:20:52.319Z,59.69
2019-01-28T18:23:24.952Z,59.17
2019-01-28T18:25:59.603Z,59.13
2019-01-28T18:28:31.972Z,59.47
2019-01-28T18:31:01.303Z,59.98
2019-01-28T18:33:30.642Z,59.90
2019-01-28T18:36:05.485Z,60.17
2019-01-28T18:38:30.993Z,60.26
2019-01-28T18:41:00.575Z,60.58
2019-01-28T18:43:30.147Z,61.56
2019-01-28T18:45:59.488Z,62.77
2019-01-28T18:48:28.837Z,64.23
2019-01-28T18:50:59.657Z,66.58
2019-01-28T18:53:29.358Z,67.74
2019-01-28T18:55:59.080Z,70.81
2019-01-28T18:58:30.732Z,71.83
2019-01-28T19:01:00.586Z,72.40
2019-01-28T19:03:30.256Z,73.76
2019-01-28T19:06:04.262Z,74.38
2019-01-28T19:08:44.803Z,75.49
2019-01-28T19:11:31.055Z,74.77
2019-01-28T19:14:10.849Z,75.60
2019-01-28T19:16:50.849Z,75.89
2019-01-28T19:19:39.990Z,75.44
2019-01-28T19:22:09.732Z,76.03
2019-01-28T19:24:39.372Z,75.90
2019-01-28T19:27:11.244Z,75.83
2019-01-28T19:29:40.175Z,75.35
2019-01-28T19:32:09.848Z,76.14
2019-01-28T19:34:39.162Z,76.12
2019-01-28T19:37:08.563Z,76.65
2019-01-28T19:39:37.882Z,76.44
2019-01-28T19:42:07.506Z,75.98
2019-01-28T19:44:37.395Z,76.53
2019-01-28T19:47:06.738Z,75.86
2019-01-28T19:49:36.307Z,75.80
2019-01-28T19:52:05.674Z,75.85
2019-01-28T19:54:35.257Z,75.68
2019-01-28T19:57:04.857Z,75.51
2019-01-28T19:59:34.413Z,75.35
2019-01-28T20:02:04.204Z,75.12
2019-01-28T20:04:33.503Z,75.45
2019-01-28T20:07:03.069Z,75.42
2019-01-28T20:09:32.449Z,76.20
2019-01-28T20:12:02.009Z,76.49
2019-01-28T20:14:33.454Z,76.56
2019-01-28T20:17:05.875Z,76.83
2019-01-28T20:19:35.199Z,76.58
2019-01-28T20:22:04.513Z,76.29
2019-01-28T20:24:35.059Z,76.17
2019-01-28T20:27:08.055Z,76.08
2019-01-28T20:29:38.047Z,76.42
2019-01-28T20:32:07.415Z,76.37
2019-01-28T20:34:43.282Z,76.01
2019-01-28T20:37:08.119Z,76.13
2019-01-28T20:39:38.389Z,76.36
2019-01-28T20:42:08.032Z,76.25
2019-01-28T20:44:37.741Z,75.97
2019-01-28T20:47:07.474Z,75.71
2019-01-28T20:49:37.186Z,75.60
2019-01-28T20:52:06.791Z,75.40
2019-01-28T20:54:36.394Z,75.09
2019-01-28T20:57:07.749Z,75.54
2019-01-28T20:59:38.076Z,75.47
2019-01-28T21:02:08.864Z,75.57
2019-01-28T21:04:38.262Z,75.92
2019-01-28T21:07:09.475Z,76.36
2019-01-28T21:09:43.261Z,75.65
2019-01-28T21:12:16.270Z,76.04
2019-01-28T21:14:45.941Z,76.12
2019-01-28T21:17:17.864Z,75.90
2019-01-28T21:19:47.581Z,75.38
2019-01-28T21:22:17.421Z,76.41
2019-01-28T21:24:46.750Z,76.16
2019-01-28T21:27:16.432Z,75.92
2019-01-28T21:29:46.041Z,76.07
2019-01-28T21:32:15.653Z,76.01
2019-01-28T21:34:48.847Z,76.13
2019-01-28T21:37:20.067Z,76.54
2019-01-28T21:39:49.367Z,76.84
2019-01-28T21:42:18.999Z,76.75
2019-01-28T21:44:48.575Z,76.57
2019-01-28T21:47:18.111Z,77.16
2019-01-28T21:49:50.024Z,77.59
2019-01-28T21:52:19.668Z,77.41
2019-01-28T21:54:51.651Z,77.54
2019-01-28T21:57:20.985Z,78.02
2019-01-28T21:59:50.758Z,77.76
2019-01-28T22:02:20.062Z,77.87
2019-01-28T22:04:57.291Z,78.06
2019-01-28T22:07:26.646Z,77.69
2019-01-28T22:09:56.248Z,77.72
2019-01-28T22:12:27.573Z,78.00
2019-01-28T22:14:59.240Z,78.31
2019-01-28T22:17:31.227Z,77.95
2019-01-28T22:20:01.666Z,77.97
2019-01-28T22:22:31.947Z,77.84
2019-01-28T22:25:03.522Z,78.01
2019-01-28T22:27:35.161Z,78.02
2019-01-28T22:30:14.123Z,78.31
2019-01-28T22:32:43.560Z,78.15
2019-01-28T22:35:12.893Z,78.12
2019-01-28T22:37:43.807Z,78.62
2019-01-28T22:40:18.189Z,79.08
2019-01-28T22:42:47.537Z,79.85
2019-01-28T22:45:20.659Z,79.80
2019-01-28T22:47:49.987Z,79.55
2019-01-28T22:50:24.019Z,79.46
2019-01-28T22:52:57.239Z,80.06
2019-01-28T22:55:27.309Z,80.25
2019-01-28T22:57:56.606Z,80.33
2019-01-28T23:00:53.236Z,80.07
2019-01-28T23:03:30.128Z,79.50
2019-01-28T23:06:07.074Z,79.66
2019-01-28T23:08:41.287Z,79.74
2019-01-28T23:11:13.357Z,80.05
2019-01-28T23:13:43.851Z,80.06
2019-01-28T23:16:13.493Z,80.93
2019-01-28T23:18:44.299Z,80.68
2019-01-28T23:21:13.966Z,81.31
2019-01-28T23:23:47.166Z,81.36
2019-01-28T23:26:17.460Z,81.20
2019-01-28T23:28:52.150Z,81.40
2019-01-28T23:31:25.477Z,81.46
2019-01-28T23:33:58.736Z,81.11
2019-01-28T23:36:29.972Z,81.25
2019-01-28T23:39:02.802Z,81.49
2019-01-28T23:41:32.364Z,82.15
2019-01-28T23:44:04.970Z,82.05
2019-01-28T23:46:34.679Z,82.32
2019-01-28T23:49:04.288Z,82.60
2019-01-28T23:51:38.258Z,83.01
2019-01-28T23:54:10.229Z,83.12
2019-01-28T23:56:39.547Z,83.80
2019-01-28T23:59:10.817Z,83.34
